Gorgan, Iran
Current Conditions -  °F | °C
As of 12:00 PM on Saturday 25 Oct 2014 (Local Time) from OING Reporting Station
Scattered Clouds Scattered Clouds  
Wind Chill: 73°   Ceiling: Unl
Heat Index: 73°   Visibility: 6mi
Dew Point: 59°   Wind: 12mph
Humidity: 61%   Direction: 270°W
Pressure: 29.97"   Gusts: NA
Location:  36.83°N, 54.48°E
Report Text: OING 250900Z 27010KT 9999 SCT025TCU SCT040 23/15 Q1015
Loading
Personal Weather Stations






























Interactive Weather Map
Tropical Storm Tracking
New forecast layout! Learn more

10-Day Weather Forecast

Advertisements
Track Severe Weather on mobile